Showing 301 to 400 of 1130 results
Race Number First Name Surname Gender Gender Position Category Category Position Club Gun Time Overall Position Chip Time Chip Position
260 Paul Cockram Male 255 MOPEN 96 01:51:06 301 01:50:56 316
1094 Mark Bailey Male 256 MOPEN 97 01:51:10 302 01:51:04 318
785 Nigel Dewhurst Male 257 M50+ 30 01:51:17 303 01:51:08 319
645 Paul De Vall Male 258 M45+ 45 01:51:19 304 01:50:22 303
116 Justin Dixon Male 259 MOPEN 98 01:51:20 305 01:50:01 299
114 Mark Dixon Male 260 M40+ 59 01:51:20 306 01:50:01 298
578 Louise Winter Female 47 FOPEN 17 Kendal AAC 01:51:22 307 01:51:03 317
355 Simon Richardson Male 261 MOPEN 99 01:51:27 308 01:50:26 305
339 Alex Carr Male 262 MOPEN 100 01:51:29 309 01:50:42 310
416 Nicky Jennings Female 48 F40+ 15 Fenland Running Club 01:51:31 310 01:51:09 320
1228 Paul Woan Male 263 M45+ 46 Red Rose Runners 01:51:31 311 01:50:05 300
666 Simon James Male 264 M45+ 47 01:51:33 312 01:51:12 321
612 John Green Male 265 M50+ 31 Annan and district athletic cl 01:51:35 313 01:50:22 304
1045 Chris Clinch Male 266 M45+ 48 Ulverston Triathlon Club 01:51:38 314 01:50:45 311
1316 Alistair Bell Male 267 MOPEN 101 01:51:40 315 01:50:35 308
1406 Scott Boardman Male 268 MOPEN 102 Barlick fell runners 01:51:51 316 01:51:43 324
221 Sam Harding Male 269 MOPEN 103 01:51:52 317 01:51:29 323
692 Kelly Temple Female 49 FOPEN 18 York Knavesmire Harriers 01:51:55 318 01:50:55 314
562 Howard Justice Male 270 MOPEN 104 Cleethorpes AC 01:51:59 319 01:50:35 309
161 Frank Thomas Male 271 M55+ 20 Wolds Veterans RC 01:52:00 320 01:51:47 327
1270 Michael Rhodes Male 272 MOPEN 105 Evenwood Road Runners 01:52:00 321 01:50:18 302
370 Garry Keenan Male 273 M45+ 49 Wetherby Runners 01:52:01 322 01:50:55 313
1281 Darren Clare Male 274 M45+ 50 01:52:02 323 01:50:50 312
299 David Stace Male 275 M45+ 51 01:52:04 324 01:51:59 331
1150 Colin Tiernan Male 276 M50+ 32 01:52:08 325 01:52:03 333
203 JOHN SPIERS Male 277 M60+ 7 01:52:11 326 01:51:18 322
255 Sharon Bullock Female 50 FOPEN 19 Kendal AAC 01:52:22 327 01:51:47 326
802 John Edmondson Male 278 M60+ 8 Kendal AAC 01:52:26 328 01:52:08 335
850 Steve Bateman Male 279 M55+ 21 Kendal AAC 01:52:27 329 01:52:07 334
1361 Catherine Eaton Female 51 F35+ 8 Tyne Bridge Harriers 01:52:28 330 01:51:54 328
573 Philip Watson Male 280 M40+ 60 COLT City of Lancaster Triathl 01:52:30 331 01:51:55 329
1426 Jon Jacyk Male 281 M45+ 52 01:52:35 332 01:52:17 338
242 Vicky Thomas Female 52 F45+ 5 Wolds Veterans RC 01:52:36 333 01:52:23 343
872 Brian Welsh Male 282 M55+ 22 01:52:45 334 01:52:18 341
545 Gerard McCafferty Male 283 M50+ 33 Low Fell Running club 01:52:45 335 01:52:18 342
682 m Thornborough Male 284 M45+ 53 Allithwaite and district runni 01:52:45 336 01:52:38 349
496 Richard Starkie Male 285 M45+ 54 Barlick Fell Runners 01:52:48 337 01:51:59 330
735 Adrian Hooper Male 286 MOPEN 106 Black Combe Runners 01:52:49 338 01:52:16 337
664 BRIAN HALTON Male 287 M50+ 34 LOSTOCK AC 01:52:50 339 01:52:47 352
1008 Gregory Tagney Male 288 M60+ 9 Dallam Running Club 01:52:53 340 01:52:23 344
1308 Liam Wood Male 289 MOPEN 107 01:52:56 341 01:52:18 340
464 Simon Fell Male 290 M50+ 35 Crook AC 01:53:00 342 01:52:43 351
1448 Christopher Neve Male 291 M50+ 36 01:53:05 343 01:52:28 346
1199 MICHAEL DENNER Male 292 M60+ 10 York Knavesmire Harriers 01:53:07 344 01:53:00 361
584 Paul Newton Male 293 M50+ 37 01:53:11 345 01:52:09 336
1210 Tony Thorley Male 294 M45+ 55 Red Rose Runners 01:53:12 346 01:51:45 325
828 Steve Marsters Male 295 M45+ 56 01:53:14 347 01:52:35 348
719 Glyn Williams Male 296 M45+ 57 Salford Harriers 01:53:15 348 01:52:42 350
319 Paul Burn Male 297 M50+ 38 01:53:16 349 01:51:59 332
1385 Sreve Wilkinson Male 298 M50+ 39 01:53:21 350 01:52:50 355
1382 Melissa Wilkinson Female 53 FOPEN 20 01:53:23 351 01:52:53 357
721 JULIE DRAPER Female 54 F50+ 3 Littlewoods Running Club 01:53:29 352 01:52:18 339
574 Tracey Hulme Female 55 F50+ 4 Wesham Road Runners 01:53:30 353 01:53:19 364
65 William Doidge Male 299 M65+ 3 Low Fell Running club 01:53:31 354 01:52:50 354
1268 Andrew Davison Male 300 M45+ 58 01:53:35 355 01:53:15 363
917 Neil May Male 301 M50+ 40 City of Hull Ac 01:53:38 356 01:52:26 345
613 Joyce Atherden Female 56 F55+ 2 01:53:47 357 01:52:52 356
874 Tony Wilkes Male 302 M55+ 23 01:53:50 358 01:52:47 353
482 Kevin Mackay Male 303 M50+ 41 01:53:54 359 01:52:53 358
337 Nigel Hetherington Male 304 M55+ 24 Motherwell AC 01:53:58 360 01:53:28 369
473 Graeme Murray Male 305 M45+ 59 01:53:59 361 01:52:56 359
1235 Sarah Acey Female 57 FOPEN 21 Newcastle University Athletics 01:54:02 362 01:53:31 370
324 Peter Judge Male 306 M45+ 60 01:54:03 363 01:53:53 379
115 John Middleton Male 307 M55+ 25 York Knavesmire Harriers 01:54:06 364 01:53:28 368
462 Alan Bentley Male 308 M50+ 42 01:54:08 365 01:52:29 347
1371 Ian Flynn Male 309 MOPEN 108 01:54:12 366 01:53:58 382
952 Stephen Cooper Male 310 MOPEN 109 01:54:16 367 01:52:59 360
83 Thomas Cliffe Male 311 MOPEN 110 01:54:20 368 01:53:39 374
418 Andrew Wilkinson Male 312 M50+ 43 01:54:21 369 01:53:23 365
373 PETER WELSH Male 313 M55+ 26 York Knavesmire Harriers 01:54:26 370 01:53:24 366
1061 Emma Bailey Female 58 F35+ 9 Barlick fell runners 01:54:26 371 01:53:37 373
1315 Peter Ryan Male 314 M50+ 44 01:54:33 372 01:53:59 383
830 Steve Hayes Male 315 M50+ 45 01:54:34 373 01:53:55 380
78 Andrew Dennis Male 316 M50+ 46 01:54:38 374 01:53:36 372
200 Lee Walmsley Male 317 M45+ 61 01:54:40 375 01:53:11 362
724 Tim Forber Male 318 M40+ 61 01:54:41 376 01:54:06 385
494 Ben Diprose Male 319 MOPEN 111 01:54:43 377 01:53:34 371
1135 David Elsworthy Male 320 M45+ 62 01:54:44 378 01:54:30 394
677 Anna Gray Female 59 F40+ 16 Holme Pierrepont RC 01:54:50 379 01:54:31 395
918 Juliet May Female 60 FOPEN 22 City of Hull Ac 01:54:51 380 01:53:39 375
876 Maria Steer Female 61 FOPEN 23 Wolds Veterans RC 01:54:52 381 01:53:46 377
1339 Letha Whitham Female 62 FOPEN 24 01:54:52 382 01:54:17 390
1234 Joe Stansfield Male 321 MOPEN 112 01:54:58 383 01:54:27 393
1261 Glyn Beaven Male 322 M40+ 62 01:55:01 384 01:53:50 378
1091 Steve Moss Male 323 M55+ 27 Teesdale AC 01:55:03 385 01:54:42 398
245 Philip charles Woodman Male 324 M65+ 4 Ripley Running Club 01:55:07 386 01:54:16 389
1363 Kerryna Travers Female 63 F40+ 17 Barrow & Furness Striders AC 01:55:10 387 01:54:09 386
443 Ian Carr Male 325 M45+ 63 01:55:13 388 01:53:42 376
803 Lucy Stamford Female 64 F40+ 18 Beverley AC 01:55:14 389 01:54:42 399
1432 Tony Nicholls Male 326 M55+ 28 01:55:16 390 01:54:55 403
694 Michael Murray Male 327 M50+ 47 01:55:16 391 01:54:56 404
509 Vanessa Hogan Female 65 FOPEN 25 Sunderland Strollers 01:55:19 392 01:54:21 391
945 Steven Prile Male 328 M55+ 29 Bolton METRO TRI 01:55:19 393 01:54:59 405
91 Chris Martin Male 329 M45+ 64 Wetherby Runners 01:55:20 394 01:54:13 387
404 John Jones Male 330 M50+ 48 01:55:23 395 01:53:26 367
238 Stephanie Goodchild Female 66 F45+ 6 Manchester YMCA Harriers 01:55:25 396 01:54:05 384
723 Ian Sharp Male 331 M50+ 49 Solihull & Small Heath Athleti 01:55:26 397 01:54:24 392
823 Rebecca Eley Female 67 FOPEN 26 Glaxo Hoad Hill Harriers 01:55:27 398 01:54:13 388
1227 Emma Mitchell Female 68 F40+ 19 Chorley Athletic Club 01:55:33 399 01:55:16 412
1223 Simon Mitchell Male 332 M50+ 50 Chorley Athletic Club 01:55:34 400 01:55:17 413